Terminal Aerodrome Forecast
Issued by NWS Riverton, WY

Home | Current Version | Previous Version | Text Only | Print | Product List | Glossary On
Versions: 1 2 3 4 5 6 7 8 9 10 11 12 13 14
000
FTUS45 KRIW 291900 AAA
TAFRIW
TAF AMD
KRIW 291902Z 2919/3018 VRB06KT P6SM FEW200
     FM292100 23011KT P6SM FEW200
     FM300200 28010KT P6SM FEW200
     FM301000 VRB05KT P6SM SKC=

USA.gov is the U.S. government's official web portal to all federal, state and local government web resources and services.